sensor_id;sensor_type;location;lat;lon;timestamp;P1;durP1;ratioP1;P2;durP2;ratioP2
37239;SDS011;23130;48.760;9.178;2023-03-20T00:02:10;14.60;;;8.32;;
37239;SDS011;23130;48.760;9.178;2023-03-20T00:04:42;13.73;;;9.88;;
37239;SDS011;23130;48.760;9.178;2023-03-20T00:07:08;14.43;;;10.05;;
37239;SDS011;23130;48.760;9.178;2023-03-20T00:09:36;12.27;;;8.50;;
37239;SDS011;23130;48.760;9.178;2023-03-20T00:12:02;10.68;;;5.82;;
37239;SDS011;23130;48.760;9.178;2023-03-20T00:14:29;8.27;;;5.90;;
37239;SDS011;23130;48.760;9.178;2023-03-20T00:16:55;6.72;;;5.07;;
37239;SDS011;23130;48.760;9.178;2023-03-20T00:19:22;7.90;;;5.00;;
37239;SDS011;23130;48.760;9.178;2023-03-20T00:21:53;7.82;;;4.45;;
37239;SDS011;23130;48.760;9.178;2023-03-20T00:24:19;8.68;;;4.60;;
37239;SDS011;23130;48.760;9.178;2023-03-20T00:26:46;5.28;;;3.67;;
37239;SDS011;23130;48.760;9.178;2023-03-20T00:29:26;4.70;;;3.40;;
37239;SDS011;23130;48.760;9.178;2023-03-20T00:31:55;4.55;;;2.90;;
37239;SDS011;23130;48.760;9.178;2023-03-20T00:34:22;3.17;;;2.38;;
37239;SDS011;23130;48.760;9.178;2023-03-20T00:36:50;3.65;;;2.28;;
37239;SDS011;23130;48.760;9.178;2023-03-20T00:39:17;3.78;;;2.40;;
37239;SDS011;23130;48.760;9.178;2023-03-20T00:41:54;4.25;;;3.00;;
37239;SDS011;23130;48.760;9.178;2023-03-20T00:47:05;4.00;;;2.75;;
37239;SDS011;23130;48.760;9.178;2023-03-20T00:49:42;5.50;;;2.67;;
37239;SDS011;23130;48.760;9.178;2023-03-20T00:52:10;3.55;;;3.05;;
37239;SDS011;23130;48.760;9.178;2023-03-20T00:54:39;4.97;;;3.35;;
37239;SDS011;23130;48.760;9.178;2023-03-20T00:57:23;5.57;;;3.05;;
37239;SDS011;23130;48.760;9.178;2023-03-20T00:59:58;4.03;;;3.25;;
37239;SDS011;23130;48.760;9.178;2023-03-20T01:02:25;3.72;;;3.15;;
37239;SDS011;23130;48.760;9.178;2023-03-20T01:04:53;5.15;;;2.97;;
37239;SDS011;23130;48.760;9.178;2023-03-20T01:07:19;4.18;;;2.70;;
37239;SDS011;23130;48.760;9.178;2023-03-20T01:09:45;3.33;;;2.22;;
37239;SDS011;23130;48.760;9.178;2023-03-20T01:12:11;2.83;;;1.90;;
37239;SDS011;23130;48.760;9.178;2023-03-20T01:14:38;4.65;;;2.15;;
37239;SDS011;23130;48.760;9.178;2023-03-20T01:17:04;4.60;;;2.20;;
37239;SDS011;23130;48.760;9.178;2023-03-20T01:19:29;3.15;;;2.40;;
37239;SDS011;23130;48.760;9.178;2023-03-20T01:21:55;3.83;;;2.47;;
37239;SDS011;23130;48.760;9.178;2023-03-20T01:24:21;4.22;;;2.53;;
37239;SDS011;23130;48.760;9.178;2023-03-20T01:26:46;4.28;;;2.90;;
37239;SDS011;23130;48.760;9.178;2023-03-20T01:34:12;4.00;;;2.90;;
37239;SDS011;23130;48.760;9.178;2023-03-20T01:36:40;4.28;;;3.08;;
37239;SDS011;23130;48.760;9.178;2023-03-20T01:39:09;4.20;;;2.60;;
37239;SDS011;23130;48.760;9.178;2023-03-20T01:41:35;2.72;;;2.03;;
37239;SDS011;23130;48.760;9.178;2023-03-20T01:44:08;5.10;;;2.42;;
37239;SDS011;23130;48.760;9.178;2023-03-20T01:46:44;3.63;;;2.85;;
37239;SDS011;23130;48.760;9.178;2023-03-20T01:51:45;5.70;;;2.65;;
37239;SDS011;23130;48.760;9.178;2023-03-20T01:54:13;4.28;;;2.25;;
37239;SDS011;23130;48.760;9.178;2023-03-20T01:56:46;2.28;;;1.83;;
37239;SDS011;23130;48.760;9.178;2023-03-20T01:59:52;2.88;;;2.13;;
37239;SDS011;23130;48.760;9.178;2023-03-20T02:02:22;3.17;;;2.00;;
37239;SDS011;23130;48.760;9.178;2023-03-20T02:04:52;2.55;;;1.80;;
37239;SDS011;23130;48.760;9.178;2023-03-20T02:07:22;3.08;;;2.13;;
37239;SDS011;23130;48.760;9.178;2023-03-20T02:09:48;5.20;;;2.92;;
37239;SDS011;23130;48.760;9.178;2023-03-20T02:12:15;5.60;;;3.50;;
37239;SDS011;23130;48.760;9.178;2023-03-20T02:14:42;4.57;;;3.33;;
37239;SDS011;23130;48.760;9.178;2023-03-20T02:17:09;3.80;;;2.90;;
37239;SDS011;23130;48.760;9.178;2023-03-20T02:19:43;3.67;;;2.60;;
37239;SDS011;23130;48.760;9.178;2023-03-20T02:22:37;3.80;;;2.03;;
37239;SDS011;23130;48.760;9.178;2023-03-20T02:31:08;1.67;;;0.80;;
37239;SDS011;23130;48.760;9.178;2023-03-20T02:42:16;0.57;;;0.38;;
37239;SDS011;23130;48.760;9.178;2023-03-20T02:45:10;3.58;;;0.70;;
37239;SDS011;23130;48.760;9.178;2023-03-20T02:47:52;0.50;;;0.30;;
37239;SDS011;23130;48.760;9.178;2023-03-20T02:50:50;1.08;;;0.40;;
37239;SDS011;23130;48.760;9.178;2023-03-20T02:56:24;1.42;;;0.40;;
37239;SDS011;23130;48.760;9.178;2023-03-20T02:58:58;0.60;;;0.35;;
37239;SDS011;23130;48.760;9.178;2023-03-20T03:01:42;0.80;;;0.40;;
37239;SDS011;23130;48.760;9.178;2023-03-20T03:04:15;0.57;;;0.30;;
37239;SDS011;23130;48.760;9.178;2023-03-20T03:06:44;0.57;;;0.20;;
37239;SDS011;23130;48.760;9.178;2023-03-20T03:09:19;0.32;;;0.20;;
37239;SDS011;23130;48.760;9.178;2023-03-20T03:11:55;0.57;;;0.20;;
37239;SDS011;23130;48.760;9.178;2023-03-20T03:14:36;1.25;;;0.40;;
37239;SDS011;23130;48.760;9.178;2023-03-20T03:17:02;0.70;;;0.30;;
37239;SDS011;23130;48.760;9.178;2023-03-20T03:22:00;1.10;;;0.38;;
37239;SDS011;23130;48.760;9.178;2023-03-20T03:24:34;1.35;;;0.38;;
37239;SDS011;23130;48.760;9.178;2023-03-20T03:27:02;0.80;;;0.28;;
37239;SDS011;23130;48.760;9.178;2023-03-20T03:29:35;2.40;;;0.32;;
37239;SDS011;23130;48.760;9.178;2023-03-20T03:32:04;0.57;;;0.20;;
37239;SDS011;23130;48.760;9.178;2023-03-20T03:34:31;0.80;;;0.30;;
37239;SDS011;23130;48.760;9.178;2023-03-20T03:37:12;0.60;;;0.20;;
37239;SDS011;23130;48.760;9.178;2023-03-20T03:42:48;0.22;;;0.20;;
37239;SDS011;23130;48.760;9.178;2023-03-20T03:50:45;0.32;;;0.15;;
37239;SDS011;23130;48.760;9.178;2023-03-20T03:53:16;0.52;;;0.22;;
37239;SDS011;23130;48.760;9.178;2023-03-20T03:55:47;0.73;;;0.30;;
37239;SDS011;23130;48.760;9.178;2023-03-20T03:58:20;1.50;;;0.30;;
37239;SDS011;23130;48.760;9.178;2023-03-20T04:01:05;1.05;;;0.30;;
37239;SDS011;23130;48.760;9.178;2023-03-20T04:03:37;1.25;;;0.40;;
37239;SDS011;23130;48.760;9.178;2023-03-20T04:06:05;0.93;;;0.52;;
37239;SDS011;23130;48.760;9.178;2023-03-20T04:08:34;0.47;;;0.17;;
37239;SDS011;23130;48.760;9.178;2023-03-20T04:11:00;1.95;;;0.30;;
37239;SDS011;23130;48.760;9.178;2023-03-20T04:13:25;0.68;;;0.25;;
37239;SDS011;23130;48.760;9.178;2023-03-20T04:15:51;1.30;;;0.35;;
37239;SDS011;23130;48.760;9.178;2023-03-20T04:18:17;0.95;;;0.25;;
37239;SDS011;23130;48.760;9.178;2023-03-20T04:20:44;1.58;;;0.35;;
37239;SDS011;23130;48.760;9.178;2023-03-20T04:23:10;0.80;;;0.35;;
37239;SDS011;23130;48.760;9.178;2023-03-20T04:25:36;0.63;;;0.30;;
37239;SDS011;23130;48.760;9.178;2023-03-20T04:28:02;0.60;;;0.40;;
37239;SDS011;23130;48.760;9.178;2023-03-20T04:30:27;0.57;;;0.30;;
37239;SDS011;23130;48.760;9.178;2023-03-20T04:32:53;0.80;;;0.40;;
37239;SDS011;23130;48.760;9.178;2023-03-20T04:35:18;0.82;;;0.40;;
37239;SDS011;23130;48.760;9.178;2023-03-20T04:37:44;1.05;;;0.75;;
37239;SDS011;23130;48.760;9.178;2023-03-20T04:40:10;0.88;;;0.47;;
37239;SDS011;23130;48.760;9.178;2023-03-20T04:42:36;0.93;;;0.47;;
37239;SDS011;23130;48.760;9.178;2023-03-20T04:45:02;1.02;;;0.50;;
37239;SDS011;23130;48.760;9.178;2023-03-20T04:47:28;1.40;;;0.40;;
37239;SDS011;23130;48.760;9.178;2023-03-20T04:49:54;0.65;;;0.40;;
37239;SDS011;23130;48.760;9.178;2023-03-20T04:52:20;1.23;;;0.32;;
37239;SDS011;23130;48.760;9.178;2023-03-20T04:54:45;0.63;;;0.20;;
37239;SDS011;23130;48.760;9.178;2023-03-20T04:57:11;0.55;;;0.35;;
37239;SDS011;23130;48.760;9.178;2023-03-20T04:59:36;0.50;;;0.30;;
37239;SDS011;23130;48.760;9.178;2023-03-20T05:02:02;0.77;;;0.30;;
37239;SDS011;23130;48.760;9.178;2023-03-20T05:04:28;0.93;;;0.40;;
37239;SDS011;23130;48.760;9.178;2023-03-20T05:06:53;1.30;;;0.50;;
37239;SDS011;23130;48.760;9.178;2023-03-20T05:09:19;1.10;;;0.50;;
37239;SDS011;23130;48.760;9.178;2023-03-20T05:11:44;1.02;;;0.30;;
37239;SDS011;23130;48.760;9.178;2023-03-20T05:14:10;0.88;;;0.38;;
37239;SDS011;23130;48.760;9.178;2023-03-20T05:16:36;0.65;;;0.35;;
37239;SDS011;23130;48.760;9.178;2023-03-20T05:19:02;0.98;;;0.60;;
37239;SDS011;23130;48.760;9.178;2023-03-20T05:21:27;0.70;;;0.30;;
37239;SDS011;23130;48.760;9.178;2023-03-20T05:23:53;0.95;;;0.43;;
37239;SDS011;23130;48.760;9.178;2023-03-20T05:26:19;1.80;;;0.50;;
37239;SDS011;23130;48.760;9.178;2023-03-20T05:28:45;2.10;;;0.45;;
37239;SDS011;23130;48.760;9.178;2023-03-20T05:31:10;1.88;;;0.40;;
37239;SDS011;23130;48.760;9.178;2023-03-20T05:33:36;1.13;;;0.43;;
37239;SDS011;23130;48.760;9.178;2023-03-20T05:36:02;1.00;;;0.57;;
37239;SDS011;23130;48.760;9.178;2023-03-20T05:38:28;2.03;;;0.40;;
37239;SDS011;23130;48.760;9.178;2023-03-20T05:40:57;2.08;;;0.60;;
37239;SDS011;23130;48.760;9.178;2023-03-20T05:43:23;1.15;;;0.45;;
37239;SDS011;23130;48.760;9.178;2023-03-20T05:45:50;1.77;;;0.80;;
37239;SDS011;23130;48.760;9.178;2023-03-20T05:48:15;1.13;;;0.68;;
37239;SDS011;23130;48.760;9.178;2023-03-20T05:50:41;1.55;;;0.60;;
37239;SDS011;23130;48.760;9.178;2023-03-20T05:53:06;1.45;;;0.70;;
37239;SDS011;23130;48.760;9.178;2023-03-20T05:55:33;1.58;;;0.70;;
37239;SDS011;23130;48.760;9.178;2023-03-20T05:57:58;1.27;;;0.60;;
37239;SDS011;23130;48.760;9.178;2023-03-20T06:00:24;1.08;;;0.82;;
37239;SDS011;23130;48.760;9.178;2023-03-20T06:02:50;0.93;;;0.50;;
37239;SDS011;23130;48.760;9.178;2023-03-20T06:05:15;0.95;;;0.50;;
37239;SDS011;23130;48.760;9.178;2023-03-20T06:07:41;1.80;;;0.70;;
37239;SDS011;23130;48.760;9.178;2023-03-20T06:10:07;1.23;;;0.60;;
37239;SDS011;23130;48.760;9.178;2023-03-20T06:12:33;1.20;;;0.60;;
37239;SDS011;23130;48.760;9.178;2023-03-20T06:14:59;1.25;;;0.50;;
37239;SDS011;23130;48.760;9.178;2023-03-20T06:17:25;1.52;;;0.70;;
37239;SDS011;23130;48.760;9.178;2023-03-20T06:19:50;1.85;;;0.70;;
37239;SDS011;23130;48.760;9.178;2023-03-20T06:22:16;1.10;;;0.50;;
37239;SDS011;23130;48.760;9.178;2023-03-20T06:24:42;0.88;;;0.47;;
37239;SDS011;23130;48.760;9.178;2023-03-20T06:27:07;1.58;;;0.55;;
37239;SDS011;23130;48.760;9.178;2023-03-20T06:29:33;1.23;;;0.65;;
37239;SDS011;23130;48.760;9.178;2023-03-20T06:31:58;1.27;;;0.40;;
37239;SDS011;23130;48.760;9.178;2023-03-20T06:34:24;1.52;;;0.40;;
37239;SDS011;23130;48.760;9.178;2023-03-20T06:36:50;1.33;;;0.80;;
37239;SDS011;23130;48.760;9.178;2023-03-20T06:39:16;1.77;;;0.75;;
37239;SDS011;23130;48.760;9.178;2023-03-20T06:41:42;1.45;;;0.75;;
37239;SDS011;23130;48.760;9.178;2023-03-20T06:44:07;1.30;;;0.73;;
37239;SDS011;23130;48.760;9.178;2023-03-20T06:46:33;1.52;;;1.05;;
37239;SDS011;23130;48.760;9.178;2023-03-20T06:48:59;1.50;;;1.02;;
37239;SDS011;23130;48.760;9.178;2023-03-20T06:51:25;3.25;;;1.30;;
37239;SDS011;23130;48.760;9.178;2023-03-20T06:53:50;1.88;;;0.80;;
37239;SDS011;23130;48.760;9.178;2023-03-20T06:56:16;2.03;;;0.70;;
37239;SDS011;23130;48.760;9.178;2023-03-20T06:58:42;1.05;;;0.63;;
37239;SDS011;23130;48.760;9.178;2023-03-20T07:01:11;1.27;;;0.63;;
37239;SDS011;23130;48.760;9.178;2023-03-20T07:03:41;0.88;;;0.57;;
37239;SDS011;23130;48.760;9.178;2023-03-20T07:06:07;2.17;;;0.88;;
37239;SDS011;23130;48.760;9.178;2023-03-20T07:08:33;2.40;;;1.00;;
37239;SDS011;23130;48.760;9.178;2023-03-20T07:10:59;2.58;;;0.85;;
37239;SDS011;23130;48.760;9.178;2023-03-20T07:13:25;1.33;;;0.60;;
37239;SDS011;23130;48.760;9.178;2023-03-20T07:15:52;1.35;;;0.80;;
37239;SDS011;23130;48.760;9.178;2023-03-20T07:18:18;1.20;;;0.60;;
37239;SDS011;23130;48.760;9.178;2023-03-20T07:20:44;1.33;;;0.70;;
37239;SDS011;23130;48.760;9.178;2023-03-20T07:23:10;3.70;;;0.88;;
37239;SDS011;23130;48.760;9.178;2023-03-20T07:25:36;1.23;;;0.60;;
37239;SDS011;23130;48.760;9.178;2023-03-20T07:28:02;1.45;;;0.70;;
37239;SDS011;23130;48.760;9.178;2023-03-20T07:30:29;1.15;;;0.80;;
37239;SDS011;23130;48.760;9.178;2023-03-20T07:32:56;1.75;;;0.90;;
37239;SDS011;23130;48.760;9.178;2023-03-20T07:35:22;3.08;;;0.80;;
37239;SDS011;23130;48.760;9.178;2023-03-20T07:37:48;1.83;;;1.00;;
37239;SDS011;23130;48.760;9.178;2023-03-20T07:40:13;1.83;;;0.80;;
37239;SDS011;23130;48.760;9.178;2023-03-20T07:42:39;1.75;;;1.25;;
37239;SDS011;23130;48.760;9.178;2023-03-20T07:45:05;3.25;;;1.00;;
37239;SDS011;23130;48.760;9.178;2023-03-20T07:47:31;2.40;;;1.15;;
37239;SDS011;23130;48.760;9.178;2023-03-20T07:49:57;2.00;;;0.90;;
37239;SDS011;23130;48.760;9.178;2023-03-20T07:52:23;1.63;;;0.75;;
37239;SDS011;23130;48.760;9.178;2023-03-20T07:54:48;1.67;;;0.73;;
37239;SDS011;23130;48.760;9.178;2023-03-20T07:57:14;1.90;;;0.63;;
37239;SDS011;23130;48.760;9.178;2023-03-20T07:59:40;2.28;;;0.80;;
37239;SDS011;23130;48.760;9.178;2023-03-20T08:02:06;2.22;;;1.25;;
37239;SDS011;23130;48.760;9.178;2023-03-20T08:04:35;1.10;;;0.75;;
37239;SDS011;23130;48.760;9.178;2023-03-20T08:07:00;1.52;;;0.70;;
37239;SDS011;23130;48.760;9.178;2023-03-20T08:09:26;2.35;;;0.65;;
37239;SDS011;23130;48.760;9.178;2023-03-20T08:11:51;3.33;;;1.08;;
37239;SDS011;23130;48.760;9.178;2023-03-20T08:14:17;2.95;;;1.60;;
37239;SDS011;23130;48.760;9.178;2023-03-20T08:16:43;1.65;;;0.70;;
37239;SDS011;23130;48.760;9.178;2023-03-20T08:19:08;1.38;;;0.70;;
37239;SDS011;23130;48.760;9.178;2023-03-20T08:21:34;2.78;;;0.73;;
37239;SDS011;23130;48.760;9.178;2023-03-20T08:24:00;1.50;;;0.80;;
37239;SDS011;23130;48.760;9.178;2023-03-20T08:26:25;3.28;;;0.88;;
37239;SDS011;23130;48.760;9.178;2023-03-20T08:28:51;1.92;;;0.80;;
37239;SDS011;23130;48.760;9.178;2023-03-20T08:31:16;1.90;;;0.85;;
37239;SDS011;23130;48.760;9.178;2023-03-20T08:33:45;1.83;;;0.88;;
37239;SDS011;23130;48.760;9.178;2023-03-20T08:36:11;2.05;;;1.10;;
37239;SDS011;23130;48.760;9.178;2023-03-20T08:38:39;3.50;;;0.70;;
37239;SDS011;23130;48.760;9.178;2023-03-20T08:41:05;1.20;;;0.70;;
37239;SDS011;23130;48.760;9.178;2023-03-20T08:43:31;1.90;;;1.02;;
37239;SDS011;23130;48.760;9.178;2023-03-20T08:45:57;1.33;;;0.70;;
37239;SDS011;23130;48.760;9.178;2023-03-20T08:48:23;3.95;;;0.90;;
37239;SDS011;23130;48.760;9.178;2023-03-20T08:50:49;1.17;;;0.65;;
37239;SDS011;23130;48.760;9.178;2023-03-20T08:53:15;1.58;;;0.70;;
37239;SDS011;23130;48.760;9.178;2023-03-20T08:55:40;1.60;;;0.77;;
37239;SDS011;23130;48.760;9.178;2023-03-20T08:58:13;2.13;;;1.27;;
37239;SDS011;23130;48.760;9.178;2023-03-20T09:00:38;1.27;;;0.60;;
37239;SDS011;23130;48.760;9.178;2023-03-20T09:03:04;3.33;;;0.98;;
37239;SDS011;23130;48.760;9.178;2023-03-20T09:05:29;1.25;;;0.75;;
37239;SDS011;23130;48.760;9.178;2023-03-20T09:07:56;1.10;;;0.68;;
37239;SDS011;23130;48.760;9.178;2023-03-20T09:10:22;3.03;;;1.02;;
37239;SDS011;23130;48.760;9.178;2023-03-20T09:12:47;1.25;;;0.68;;
37239;SDS011;23130;48.760;9.178;2023-03-20T09:15:13;2.20;;;0.68;;
37239;SDS011;23130;48.760;9.178;2023-03-20T09:17:39;1.67;;;0.77;;
37239;SDS011;23130;48.760;9.178;2023-03-20T09:20:04;1.48;;;0.50;;
37239;SDS011;23130;48.760;9.178;2023-03-20T09:22:30;2.20;;;0.60;;
37239;SDS011;23130;48.760;9.178;2023-03-20T09:24:56;1.50;;;1.10;;
37239;SDS011;23130;48.760;9.178;2023-03-20T09:27:22;1.58;;;0.95;;
37239;SDS011;23130;48.760;9.178;2023-03-20T09:29:47;2.50;;;0.88;;
37239;SDS011;23130;48.760;9.178;2023-03-20T09:32:13;1.75;;;0.70;;
37239;SDS011;23130;48.760;9.178;2023-03-20T09:34:39;1.90;;;0.95;;
37239;SDS011;23130;48.760;9.178;2023-03-20T09:37:05;1.63;;;0.80;;
37239;SDS011;23130;48.760;9.178;2023-03-20T09:39:31;1.83;;;0.82;;
37239;SDS011;23130;48.760;9.178;2023-03-20T09:41:59;1.42;;;0.70;;
37239;SDS011;23130;48.760;9.178;2023-03-20T09:47:39;2.00;;;1.17;;
37239;SDS011;23130;48.760;9.178;2023-03-20T09:50:44;1.95;;;1.13;;
37239;SDS011;23130;48.760;9.178;2023-03-20T09:53:37;1.63;;;0.70;;
37239;SDS011;23130;48.760;9.178;2023-03-20T09:56:05;2.03;;;1.10;;
37239;SDS011;23130;48.760;9.178;2023-03-20T09:58:40;3.38;;;1.00;;
37239;SDS011;23130;48.760;9.178;2023-03-20T10:01:06;2.85;;;1.52;;
37239;SDS011;23130;48.760;9.178;2023-03-20T10:03:54;2.63;;;0.95;;
37239;SDS011;23130;48.760;9.178;2023-03-20T10:06:21;2.17;;;1.25;;
37239;SDS011;23130;48.760;9.178;2023-03-20T10:08:47;2.80;;;1.17;;
37239;SDS011;23130;48.760;9.178;2023-03-20T10:19:14;2.03;;;0.98;;
37239;SDS011;23130;48.760;9.178;2023-03-20T10:21:46;1.50;;;0.98;;
37239;SDS011;23130;48.760;9.178;2023-03-20T10:24:33;2.63;;;1.27;;
37239;SDS011;23130;48.760;9.178;2023-03-20T10:27:04;2.90;;;1.33;;
37239;SDS011;23130;48.760;9.178;2023-03-20T10:35:18;2.65;;;1.20;;
37239;SDS011;23130;48.760;9.178;2023-03-20T10:37:52;1.10;;;0.80;;
37239;SDS011;23130;48.760;9.178;2023-03-20T10:40:25;1.95;;;0.88;;
37239;SDS011;23130;48.760;9.178;2023-03-20T10:42:54;1.58;;;0.80;;
37239;SDS011;23130;48.760;9.178;2023-03-20T10:45:28;3.88;;;0.77;;
37239;SDS011;23130;48.760;9.178;2023-03-20T10:48:22;1.73;;;0.52;;
37239;SDS011;23130;48.760;9.178;2023-03-20T10:50:54;2.05;;;1.00;;
37239;SDS011;23130;48.760;9.178;2023-03-20T10:53:33;1.77;;;0.60;;
37239;SDS011;23130;48.760;9.178;2023-03-20T10:56:05;1.80;;;0.85;;
37239;SDS011;23130;48.760;9.178;2023-03-20T10:58:38;3.20;;;1.40;;
37239;SDS011;23130;48.760;9.178;2023-03-20T11:01:05;1.58;;;0.70;;
37239;SDS011;23130;48.760;9.178;2023-03-20T11:03:32;1.60;;;0.90;;
37239;SDS011;23130;48.760;9.178;2023-03-20T11:06:00;2.72;;;1.35;;
37239;SDS011;23130;48.760;9.178;2023-03-20T11:08:30;1.95;;;1.08;;
37239;SDS011;23130;48.760;9.178;2023-03-20T11:11:00;1.55;;;0.88;;
37239;SDS011;23130;48.760;9.178;2023-03-20T11:13:31;3.00;;;0.80;;
37239;SDS011;23130;48.760;9.178;2023-03-20T11:16:33;2.42;;;1.02;;
37239;SDS011;23130;48.760;9.178;2023-03-20T11:18:57;3.05;;;1.05;;
37239;SDS011;23130;48.760;9.178;2023-03-20T11:21:30;2.13;;;1.17;;
37239;SDS011;23130;48.760;9.178;2023-03-20T11:23:57;2.42;;;1.02;;
37239;SDS011;23130;48.760;9.178;2023-03-20T11:29:09;4.80;;;2.47;;
37239;SDS011;23130;48.760;9.178;2023-03-20T11:32:02;4.53;;;2.38;;
37239;SDS011;23130;48.760;9.178;2023-03-20T11:34:40;4.40;;;2.90;;
37239;SDS011;23130;48.760;9.178;2023-03-20T11:37:19;5.18;;;2.97;;
37239;SDS011;23130;48.760;9.178;2023-03-20T11:39:56;7.57;;;3.60;;
37239;SDS011;23130;48.760;9.178;2023-03-20T11:42:39;5.75;;;3.80;;
37239;SDS011;23130;48.760;9.178;2023-03-20T11:45:33;5.43;;;3.42;;
37239;SDS011;23130;48.760;9.178;2023-03-20T11:48:00;5.00;;;2.92;;
37239;SDS011;23130;48.760;9.178;2023-03-20T11:50:31;4.40;;;2.85;;
37239;SDS011;23130;48.760;9.178;2023-03-20T11:53:21;5.28;;;3.67;;
37239;SDS011;23130;48.760;9.178;2023-03-20T11:58:28;5.90;;;2.95;;
37239;SDS011;23130;48.760;9.178;2023-03-20T12:00:54;6.57;;;3.22;;
37239;SDS011;23130;48.760;9.178;2023-03-20T12:06:20;5.47;;;3.00;;
37239;SDS011;23130;48.760;9.178;2023-03-20T12:08:53;8.02;;;3.47;;
37239;SDS011;23130;48.760;9.178;2023-03-20T12:11:42;4.28;;;2.80;;
37239;SDS011;23130;48.760;9.178;2023-03-20T12:16:56;5.68;;;3.40;;
37239;SDS011;23130;48.760;9.178;2023-03-20T12:20:23;4.20;;;3.33;;
37239;SDS011;23130;48.760;9.178;2023-03-20T12:25:28;4.00;;;2.53;;
37239;SDS011;23130;48.760;9.178;2023-03-20T12:28:10;7.55;;;3.08;;
37239;SDS011;23130;48.760;9.178;2023-03-20T12:30:44;5.38;;;2.67;;
37239;SDS011;23130;48.760;9.178;2023-03-20T12:35:49;4.97;;;3.22;;
37239;SDS011;23130;48.760;9.178;2023-03-20T12:38:27;5.85;;;3.03;;
37239;SDS011;23130;48.760;9.178;2023-03-20T12:43:48;5.75;;;2.65;;
37239;SDS011;23130;48.760;9.178;2023-03-20T12:46:45;4.20;;;2.00;;
37239;SDS011;23130;48.760;9.178;2023-03-20T12:54:58;6.50;;;3.30;;
37239;SDS011;23130;48.760;9.178;2023-03-20T13:03:25;6.70;;;3.05;;
37239;SDS011;23130;48.760;9.178;2023-03-20T13:14:10;4.45;;;2.50;;
37239;SDS011;23130;48.760;9.178;2023-03-20T13:17:01;5.22;;;2.40;;
37239;SDS011;23130;48.760;9.178;2023-03-20T13:22:12;4.55;;;2.58;;
37239;SDS011;23130;48.760;9.178;2023-03-20T13:24:48;4.20;;;2.80;;
37239;SDS011;23130;48.760;9.178;2023-03-20T13:29:59;6.30;;;4.00;;
37239;SDS011;23130;48.760;9.178;2023-03-20T13:35:28;5.97;;;3.22;;
37239;SDS011;23130;48.760;9.178;2023-03-20T13:38:20;7.68;;;3.83;;
37239;SDS011;23130;48.760;9.178;2023-03-20T13:40:49;5.53;;;3.47;;
37239;SDS011;23130;48.760;9.178;2023-03-20T13:43:30;6.28;;;3.22;;
37239;SDS011;23130;48.760;9.178;2023-03-20T13:46:07;4.60;;;3.05;;
37239;SDS011;23130;48.760;9.178;2023-03-20T13:48:41;9.02;;;3.80;;
37239;SDS011;23130;48.760;9.178;2023-03-20T13:51:13;5.35;;;3.63;;
37239;SDS011;23130;48.760;9.178;2023-03-20T14:00:52;5.45;;;3.10;;
37239;SDS011;23130;48.760;9.178;2023-03-20T14:05:44;3.67;;;2.78;;
37239;SDS011;23130;48.760;9.178;2023-03-20T14:10:55;4.60;;;2.72;;
37239;SDS011;23130;48.760;9.178;2023-03-20T14:13:31;4.85;;;2.53;;
37239;SDS011;23130;48.760;9.178;2023-03-20T14:15:59;5.93;;;2.70;;
37239;SDS011;23130;48.760;9.178;2023-03-20T14:18:27;6.15;;;3.53;;
37239;SDS011;23130;48.760;9.178;2023-03-20T14:20:56;4.15;;;2.70;;
37239;SDS011;23130;48.760;9.178;2023-03-20T14:23:32;5.40;;;2.50;;
37239;SDS011;23130;48.760;9.178;2023-03-20T14:26:06;8.73;;;2.58;;
37239;SDS011;23130;48.760;9.178;2023-03-20T14:31:35;4.15;;;2.58;;
37239;SDS011;23130;48.760;9.178;2023-03-20T14:36:50;3.50;;;1.83;;
37239;SDS011;23130;48.760;9.178;2023-03-20T14:45:01;5.85;;;3.10;;
37239;SDS011;23130;48.760;9.178;2023-03-20T14:50:32;2.85;;;2.05;;
37239;SDS011;23130;48.760;9.178;2023-03-20T14:53:18;4.88;;;2.03;;
37239;SDS011;23130;48.760;9.178;2023-03-20T15:01:15;3.60;;;1.80;;
37239;SDS011;23130;48.760;9.178;2023-03-20T15:03:46;4.43;;;1.88;;
37239;SDS011;23130;48.760;9.178;2023-03-20T15:06:20;4.78;;;2.28;;
37239;SDS011;23130;48.760;9.178;2023-03-20T15:08:58;4.43;;;1.70;;
37239;SDS011;23130;48.760;9.178;2023-03-20T15:11:30;4.38;;;2.63;;
37239;SDS011;23130;48.760;9.178;2023-03-20T15:13:59;4.82;;;2.28;;
37239;SDS011;23130;48.760;9.178;2023-03-20T15:16:28;4.82;;;2.55;;
37239;SDS011;23130;48.760;9.178;2023-03-20T15:18:55;4.88;;;2.40;;
37239;SDS011;23130;48.760;9.178;2023-03-20T15:21:30;5.38;;;2.28;;
37239;SDS011;23130;48.760;9.178;2023-03-20T15:24:05;4.47;;;2.40;;
37239;SDS011;23130;48.760;9.178;2023-03-20T15:26:31;4.38;;;2.50;;
37239;SDS011;23130;48.760;9.178;2023-03-20T15:28:59;3.95;;;2.50;;
37239;SDS011;23130;48.760;9.178;2023-03-20T15:31:31;5.65;;;2.72;;
37239;SDS011;23130;48.760;9.178;2023-03-20T15:33:59;2.95;;;1.88;;
37239;SDS011;23130;48.760;9.178;2023-03-20T15:36:28;2.38;;;1.50;;
37239;SDS011;23130;48.760;9.178;2023-03-20T15:39:04;2.88;;;1.75;;
37239;SDS011;23130;48.760;9.178;2023-03-20T15:41:31;3.53;;;1.45;;
37239;SDS011;23130;48.760;9.178;2023-03-20T15:49:27;3.60;;;1.33;;
37239;SDS011;23130;48.760;9.178;2023-03-20T15:51:56;3.03;;;1.40;;
37239;SDS011;23130;48.760;9.178;2023-03-20T15:54:24;2.47;;;1.10;;
37239;SDS011;23130;48.760;9.178;2023-03-20T15:56:51;1.80;;;0.80;;
37239;SDS011;23130;48.760;9.178;2023-03-20T15:59:20;1.33;;;0.60;;
37239;SDS011;23130;48.760;9.178;2023-03-20T16:01:50;0.93;;;0.45;;
37239;SDS011;23130;48.760;9.178;2023-03-20T16:04:19;3.33;;;0.70;;
37239;SDS011;23130;48.760;9.178;2023-03-20T16:06:53;0.63;;;0.50;;
37239;SDS011;23130;48.760;9.178;2023-03-20T16:09:20;1.38;;;0.57;;
37239;SDS011;23130;48.760;9.178;2023-03-20T16:11:46;2.38;;;0.93;;
37239;SDS011;23130;48.760;9.178;2023-03-20T16:14:22;1.63;;;0.70;;
37239;SDS011;23130;48.760;9.178;2023-03-20T16:16:50;2.38;;;0.77;;
37239;SDS011;23130;48.760;9.178;2023-03-20T16:19:18;2.00;;;0.65;;
37239;SDS011;23130;48.760;9.178;2023-03-20T16:21:48;1.30;;;0.70;;
37239;SDS011;23130;48.760;9.178;2023-03-20T16:24:18;2.13;;;0.70;;
37239;SDS011;23130;48.760;9.178;2023-03-20T16:26:50;1.77;;;0.57;;
37239;SDS011;23130;48.760;9.178;2023-03-20T16:29:16;2.15;;;0.73;;
37239;SDS011;23130;48.760;9.178;2023-03-20T16:31:47;1.75;;;0.70;;
37239;SDS011;23130;48.760;9.178;2023-03-20T16:34:29;2.03;;;0.80;;
37239;SDS011;23130;48.760;9.178;2023-03-20T16:36:59;2.67;;;0.80;;
37239;SDS011;23130;48.760;9.178;2023-03-20T16:39:30;1.65;;;0.70;;
37239;SDS011;23130;48.760;9.178;2023-03-20T16:44:34;2.10;;;0.88;;
37239;SDS011;23130;48.760;9.178;2023-03-20T16:47:20;2.92;;;0.85;;
37239;SDS011;23130;48.760;9.178;2023-03-20T16:52:29;1.27;;;0.82;;
37239;SDS011;23130;48.760;9.178;2023-03-20T16:54:59;1.38;;;0.52;;
37239;SDS011;23130;48.760;9.178;2023-03-20T16:57:26;1.92;;;0.80;;
37239;SDS011;23130;48.760;9.178;2023-03-20T16:59:58;1.83;;;0.80;;
37239;SDS011;23130;48.760;9.178;2023-03-20T17:02:29;2.33;;;0.80;;
37239;SDS011;23130;48.760;9.178;2023-03-20T17:05:01;4.35;;;1.42;;
37239;SDS011;23130;48.760;9.178;2023-03-20T17:07:30;1.42;;;0.80;;
37239;SDS011;23130;48.760;9.178;2023-03-20T17:10:10;1.60;;;0.90;;
37239;SDS011;23130;48.760;9.178;2023-03-20T17:12:42;3.30;;;0.60;;
37239;SDS011;23130;48.760;9.178;2023-03-20T17:15:14;2.72;;;0.77;;
37239;SDS011;23130;48.760;9.178;2023-03-20T17:17:41;1.63;;;0.55;;
37239;SDS011;23130;48.760;9.178;2023-03-20T17:20:18;1.02;;;0.60;;
37239;SDS011;23130;48.760;9.178;2023-03-20T17:22:54;1.15;;;0.60;;
37239;SDS011;23130;48.760;9.178;2023-03-20T17:25:20;1.48;;;0.55;;
37239;SDS011;23130;48.760;9.178;2023-03-20T17:27:46;1.58;;;0.60;;
37239;SDS011;23130;48.760;9.178;2023-03-20T17:30:13;1.85;;;0.80;;
37239;SDS011;23130;48.760;9.178;2023-03-20T17:32:44;1.92;;;0.65;;